Time;durP1;ratioP1;P1;durP2;ratioP2;P2;SDS_P1;SDS_P2;PMS_P1;PMS_P2;Temp;Humidity;BMP_temperature;BMP_pressure;BME280_temperature;BME280_humidity;BME280_pressure;Samples;Min_cycle;Max_cycle;Signal;HPM_P1;HPM_P2
2022/03/28 00:00:40;;;;;;;24.17;9.87;;;;;;;10.08;51.77;95810.84;5075443;28;20217;-81
2022/03/28 00:03:06;;;;;;;22.63;8.63;;;;;;;10.50;52.03;95886.50;5076183;28;20254;-81
2022/03/28 00:05:32;;;;;;;21.10;8.57;;;;;;;10.42;51.71;95875.25;5075531;28;20186;-82
2022/03/28 00:07:58;;;;;;;22.47;10.27;;;;;;;10.17;51.88;95836.09;5074963;28;20191;-81
2022/03/28 00:10:23;;;;;;;47.70;15.43;;;;;;;10.44;52.07;95879.34;5074862;28;20174;-81
2022/03/28 00:12:49;;;;;;;42.10;16.40;;;;;;;10.34;51.99;95886.72;5056962;28;20174;-82
2022/03/28 00:15:15;;;;;;;36.07;16.33;;;;;;;10.17;52.16;95856.28;5076640;28;20649;-82
2022/03/28 00:17:40;;;;;;;36.53;14.00;;;;;;;10.28;51.83;95884.00;5057357;28;20610;-81
2022/03/28 00:20:09;;;;;;;38.73;12.10;;;;;;;10.29;51.96;95885.63;5075120;28;20155;-81
2022/03/28 00:22:35;;;;;;;32.13;13.50;;;;;;;10.28;51.86;95878.72;5074760;28;20154;-81
2022/03/28 00:25:01;;;;;;;36.73;13.80;;;;;;;10.20;52.12;95875.19;5075295;28;20213;-82
2022/03/28 00:27:26;;;;;;;31.93;13.10;;;;;;;9.79;51.86;95816.13;5074611;28;20285;-81
2022/03/28 00:29:52;;;;;;;29.83;12.57;;;;;;;9.82;52.14;95828.94;5056669;28;20257;-81
2022/03/28 00:32:17;;;;;;;29.00;12.40;;;;;;;9.66;51.95;95813.34;5074361;28;20186;-81
2022/03/28 00:34:43;;;;;;;26.53;11.83;;;;;;;9.61;52.34;95807.78;5074334;28;20232;-81
2022/03/28 00:37:10;;;;;;;26.27;11.90;;;;;;;9.75;52.49;95839.34;5073905;28;20221;-81
2022/03/28 00:39:35;;;;;;;30.33;13.63;;;;;;;9.45;53.07;95804.34;5073955;28;20724;-82
2022/03/28 00:42:01;;;;;;;39.13;15.10;;;;;;;9.70;53.18;95860.09;5073777;28;20178;-81
2022/03/28 00:44:29;;;;;;;32.50;12.43;;;;;;;9.23;53.89;95805.22;5074016;28;20254;-82
2022/03/28 00:46:55;;;;;;;28.67;11.90;;;;;;;9.39;53.71;95844.50;5074190;28;20259;-82
2022/03/28 00:49:20;;;;;;;30.70;11.10;;;;;;;8.90;54.54;95769.75;5056367;28;20170;-82
2022/03/28 00:51:46;;;;;;;24.23;9.83;;;;;;;8.86;54.93;95756.16;5074402;28;20665;-82
2022/03/28 00:54:11;;;;;;;22.30;10.70;;;;;;;9.37;54.46;95848.28;5074186;28;20174;-82
2022/03/28 00:56:37;;;;;;;34.47;11.77;;;;;;;8.87;54.71;95785.84;5073909;28;20181;-82
2022/03/28 00:59:04;;;;;;;25.47;10.20;;;;;;;9.03;54.94;95812.78;5073389;28;20181;-82
2022/03/28 01:01:30;;;;;;;24.77;11.20;;;;;;;9.30;54.68;95855.25;5073692;28;20170;-82
2022/03/28 01:03:56;;;;;;;21.20;10.07;;;;;;;9.25;54.94;95866.31;5073379;28;20223;-82
2022/03/28 01:06:22;;;;;;;24.17;9.53;;;;;;;8.91;55.20;95826.50;5073616;28;20189;-82
2022/03/28 01:08:48;;;;;;;21.73;9.47;;;;;;;9.13;55.63;95864.25;5074192;28;20158;-82
2022/03/28 01:11:13;;;;;;;21.47;9.90;;;;;;;8.57;55.92;95775.25;5073818;28;20247;-82
2022/03/28 01:13:40;;;;;;;29.97;9.77;;;;;;;9.01;55.92;95858.59;5074144;28;20158;-82
2022/03/28 01:16:07;;;;;;;21.70;9.60;;;;;;;8.68;56.05;95810.78;5055964;28;20186;-82
2022/03/28 01:18:33;;;;;;;20.17;9.37;;;;;;;9.02;56.22;95850.56;5076979;28;20158;-82
2022/03/28 01:20:59;;;;;;;17.83;9.73;;;;;;;8.62;55.72;95796.56;5056541;28;20173;-83
2022/03/28 01:23:25;;;;;;;24.83;10.07;;;;;;;8.76;56.50;95818.59;5073951;28;20159;-82
2022/03/28 01:25:51;;;;;;;27.90;10.00;;;;;;;8.63;56.07;95807.88;5073506;28;21058;-82
2022/03/28 01:28:19;;;;;;;20.07;9.23;;;;;;;8.75;56.09;95821.38;5073430;28;20727;-82
2022/03/28 01:30:44;;;;;;;20.80;9.87;;;;;;;8.50;56.06;95790.06;5076610;28;20170;-82
2022/03/28 01:33:10;;;;;;;21.57;10.00;;;;;;;8.81;56.65;95847.78;5074360;28;20151;-82
2022/03/28 01:35:38;;;;;;;24.73;12.73;;;;;;;8.49;56.68;95791.06;5073289;28;20229;-83
2022/03/28 01:38:15;;;;;;;26.77;11.27;;;;;;;8.43;57.12;95810.13;5073591;28;20702;-83
2022/03/28 01:40:44;;;;;;;26.47;12.93;;;;;;;8.56;57.44;95843.69;5055003;28;20182;-82
2022/03/28 01:43:10;;;;;;;30.77;13.47;;;;;;;8.18;57.68;95792.88;5071654;28;20213;-83
2022/03/28 01:45:36;;;;;;;31.97;14.07;;;;;;;8.54;57.74;95835.97;5072460;28;20655;-83
2022/03/28 01:48:01;;;;;;;24.33;12.33;;;;;;;8.44;57.44;95829.31;5072505;28;20190;-83
2022/03/28 01:50:27;;;;;;;24.63;12.53;;;;;;;8.19;57.54;95786.63;5054908;28;20178;-84
2022/03/28 01:52:53;;;;;;;29.43;12.97;;;;;;;8.03;57.81;95784.09;5073336;28;20169;-82
2022/03/28 01:55:19;;;;;;;20.00;11.33;;;;;;;7.81;57.74;95768.16;5073035;28;20186;-82
2022/03/28 01:57:45;;;;;;;22.83;10.27;;;;;;;8.25;58.29;95830.53;5072943;28;20169;-82
2022/03/28 02:00:16;;;;;;;28.03;11.27;;;;;;;8.30;57.89;95850.00;5072573;28;20187;-82
2022/03/28 02:02:42;;;;;;;25.43;13.23;;;;;;;7.87;58.17;95791.03;5072296;28;20182;-82
2022/03/28 02:05:12;;;;;;;22.73;11.07;;;;;;;7.73;58.42;95762.13;5072006;28;20537;-81
2022/03/28 02:07:41;;;;;;;25.43;11.53;;;;;;;8.15;58.53;95832.53;5072291;28;20194;-82
2022/03/28 02:10:13;;;;;;;26.57;11.83;;;;;;;8.23;58.62;95845.63;5072672;28;20645;-82
2022/03/28 02:12:38;;;;;;;21.20;11.77;;;;;;;7.76;58.81;95790.63;5072944;28;20175;-82
2022/03/28 02:15:06;;;;;;;24.17;11.70;;;;;;;7.71;58.72;95785.06;5054662;28;20177;-82
2022/03/28 02:17:33;;;;;;;22.07;11.37;;;;;;;8.07;58.67;95841.28;5072847;28;20217;-82
2022/03/28 02:19:58;;;;;;;21.10;10.90;;;;;;;7.90;58.65;95816.09;5072531;28;20174;-82
2022/03/28 02:22:24;;;;;;;28.50;12.00;;;;;;;7.92;58.77;95816.75;5072544;28;20163;-82
2022/03/28 02:24:50;;;;;;;28.27;11.90;;;;;;;8.04;58.21;95835.56;5054522;28;20178;-82
2022/03/28 02:27:15;;;;;;;23.03;11.97;;;;;;;8.07;58.54;95849.13;5072588;28;20243;-81
2022/03/28 02:29:41;;;;;;;27.10;12.67;;;;;;;7.54;58.54;95779.88;5072356;28;20159;-81
2022/03/28 02:32:07;;;;;;;28.60;12.87;;;;;;;7.99;58.80;95850.97;5071913;28;20232;-81
2022/03/28 02:34:33;;;;;;;47.13;13.73;;;;;;;7.64;59.25;95805.06;5073100;28;20218;-82
2022/03/28 02:36:58;;;;;;;23.90;12.80;;;;;;;7.87;59.38;95853.94;5055269;28;20171;-81
2022/03/28 02:39:24;;;;;;;29.67;13.70;;;;;;;7.50;59.19;95794.31;5071654;28;20730;-82
2022/03/28 02:41:49;;;;;;;31.17;13.80;;;;;;;7.38;58.97;95782.56;5071929;28;20189;-82
2022/03/28 02:44:15;;;;;;;24.77;13.03;;;;;;;7.54;59.09;95806.06;5072434;28;20165;-82
2022/03/28 02:46:40;;;;;;;29.97;14.57;;;;;;;7.44;59.09;95791.53;5074908;28;20187;-81
2022/03/28 02:49:06;;;;;;;45.43;16.20;;;;;;;7.33;59.46;95779.63;5072092;28;20178;-81
2022/03/28 02:51:31;;;;;;;33.37;13.93;;;;;;;7.55;59.64;95830.47;5072365;28;20161;-82
2022/03/28 02:53:57;;;;;;;29.87;14.93;;;;;;;7.16;59.52;95776.22;5053915;28;20175;-81
2022/03/28 02:56:22;;;;;;;30.00;14.60;;;;;;;7.53;59.70;95837.69;5072257;28;20584;-82
2022/03/28 02:58:48;;;;;;;27.07;14.70;;;;;;;7.58;59.61;95865.03;5072007;28;20161;-82
2022/03/28 03:01:14;;;;;;;25.13;13.33;;;;;;;6.93;60.27;95777.88;5072272;28;20247;-82
2022/03/28 03:03:40;;;;;;;32.17;13.93;;;;;;;7.42;60.53;95853.75;5053964;28;20540;-82
2022/03/28 03:06:06;;;;;;;30.77;14.93;;;;;;;7.24;60.73;95843.47;5072235;28;20158;-82
2022/03/28 03:08:31;;;;;;;33.50;15.97;;;;;;;6.91;61.33;95808.66;5051770;28;20760;-82
2022/03/28 03:10:57;;;;;;;25.47;13.57;;;;;;;6.90;61.92;95833.19;5071456;28;20236;-82
2022/03/28 03:13:22;;;;;;;29.97;14.03;;;;;;;6.98;61.94;95842.84;5071148;28;20170;-82
2022/03/28 03:15:48;;;;;;;34.03;15.30;;;;;;;6.25;61.82;95715.47;5071322;28;20179;-82
2022/03/28 03:18:13;;;;;;;44.80;15.93;;;;;;;6.70;61.51;95795.25;5071778;28;20182;-82
2022/03/28 03:20:38;;;;;;;43.47;18.27;;;;;;;6.55;62.00;95783.81;5072059;28;20686;-82
2022/03/28 03:23:04;;;;;;;54.57;22.60;;;;;;;6.71;61.99;95802.94;5072016;28;20151;-82
2022/03/28 03:25:30;;;;;;;40.27;16.73;;;;;;;7.05;61.28;95844.63;5072286;28;20167;-82
2022/03/28 03:27:57;;;;;;;47.67;18.03;;;;;;;6.92;61.00;95825.97;5071883;28;20701;-82
2022/03/28 03:30:23;;;;;;;51.57;21.47;;;;;;;6.89;61.44;95821.09;5070320;28;20186;-82
2022/03/28 03:32:49;;;;;;;44.33;21.50;;;;;;;7.13;61.80;95872.59;5070611;28;20166;-82
2022/03/28 03:35:14;;;;;;;37.87;18.13;;;;;;;6.69;61.93;95806.69;5070532;28;20226;-82
2022/03/28 03:37:40;;;;;;;32.80;15.73;;;;;;;6.97;62.17;95864.75;5068648;28;20178;-82
2022/03/28 03:40:07;;;;;;;35.23;17.53;;;;;;;7.03;62.11;95878.00;5070495;28;20544;-82
2022/03/28 03:42:33;;;;;;;40.73;16.23;;;;;;;6.98;62.33;95877.69;5071088;28;20182;-82
2022/03/28 03:44:59;;;;;;;40.80;18.00;;;;;;;6.76;62.45;95849.53;5071820;28;20166;-82
2022/03/28 03:47:25;;;;;;;43.23;18.70;;;;;;;6.49;62.70;95802.75;5053528;28;20256;-82
2022/03/28 03:49:50;;;;;;;33.93;17.63;;;;;;;6.82;62.36;95868.03;5056258;28;20206;-81
2022/03/28 03:52:16;;;;;;;34.23;16.10;;;;;;;6.34;63.04;95794.72;5070555;28;20546;-82
2022/03/28 03:54:42;;;;;;;33.77;16.70;;;;;;;6.56;62.90;95825.50;5070447;28;20174;-82
2022/03/28 03:57:07;;;;;;;38.87;16.97;;;;;;;6.66;62.70;95846.28;5070565;28;20174;-82
2022/03/28 03:59:33;;;;;;;30.40;15.80;;;;;;;6.66;62.56;95852.28;5071277;28;20186;-81
2022/03/28 04:01:59;;;;;;;35.40;17.17;;;;;;;6.63;63.15;95852.63;5073142;28;20174;-82
2022/03/28 04:04:24;;;;;;;32.90;16.50;;;;;;;6.30;62.77;95801.28;5052549;28;20668;-82
2022/03/28 04:06:50;;;;;;;44.63;17.17;;;;;;;6.78;63.02;95881.59;5071545;28;20198;-82
2022/03/28 04:09:15;;;;;;;30.67;14.77;;;;;;;6.74;62.91;95875.06;5074248;28;20205;-82
2022/03/28 04:11:41;;;;;;;39.67;18.43;;;;;;;6.57;63.10;95842.00;5074618;28;20174;-82
2022/03/28 04:14:07;;;;;;;31.87;17.63;;;;;;;6.77;63.30;95879.94;5075227;28;20170;-81
2022/03/28 04:16:33;;;;;;;36.30;15.20;;;;;;;6.40;63.00;95826.25;5075390;28;20174;-81
2022/03/28 04:18:59;;;;;;;37.33;16.87;;;;;;;6.33;63.24;95822.66;5057057;28;20273;-82
2022/03/28 04:21:24;;;;;;;37.30;17.43;;;;;;;6.68;62.87;95881.75;5074836;28;20657;-82
2022/03/28 04:23:50;;;;;;;47.53;23.37;;;;;;;6.50;64.27;95875.81;5075116;28;20174;-81
2022/03/28 04:26:15;;;;;;;43.23;19.03;;;;;;;6.27;64.96;95854.69;5064739;28;20236;-83
2022/03/28 04:28:42;;;;;;;1999.90;999.90;;;;;;;6.30;64.73;95854.38;5037577;28;20256;-82
2022/03/28 04:31:07;;;;;;;1999.90;999.90;;;;;;;6.57;64.68;95894.31;5073252;28;20247;-82
2022/03/28 04:33:33;;;;;;;1999.90;999.90;;;;;;;6.48;64.98;95875.19;5074409;28;20776;-82
2022/03/28 04:35:59;;;;;;;1999.90;999.90;;;;;;;6.54;65.66;95884.16;5074346;28;20185;-83
2022/03/28 04:38:25;;;;;;;1999.90;999.90;;;;;;;6.68;65.12;95875.69;5056006;28;20650;-82
2022/03/28 04:40:51;;;;;;;1999.90;999.90;;;;;;;6.82;63.31;95836.63;5073666;28;20189;-82
2022/03/28 04:43:17;;;;;;;1999.90;999.90;;;;;;;7.29;62.02;95838.56;5073962;28;20170;-80
2022/03/28 04:45:42;;;;;;;1999.90;999.90;;;;;;;7.90;60.24;95864.13;5074309;28;20170;-80
2022/03/28 04:48:08;;;;;;;1999.90;999.90;;;;;;;8.27;58.72;95852.97;5074269;28;21003;-83
2022/03/28 04:50:34;;;;;;;1999.90;999.90;;;;;;;8.91;56.66;95847.50;5073932;28;20196;-84
2022/03/28 04:53:00;;;;;;;1999.90;999.90;;;;;;;9.69;54.96;95894.44;5073491;28;20269;-85
2022/03/28 04:55:27;;;;;;;43.53;16.43;;;;;;;10.13;53.90;95894.47;5055477;28;20766;-85
2022/03/28 04:57:53;;;;;;;36.27;15.70;;;;;;;10.05;52.04;95807.75;5055660;28;20182;-84
2022/03/28 05:00:18;;;;;;;40.20;15.03;;;;;;;10.71;50.94;95843.59;5055287;28;20622;-84
2022/03/28 05:02:44;;;;;;;32.63;15.97;;;;;;;11.21;50.06;95871.63;5055825;28;20197;-83
2022/03/28 05:05:09;;;;;;;33.77;16.00;;;;;;;11.67;49.18;95868.56;5056011;28;20174;-84
2022/03/28 05:07:36;;;;;;;36.47;15.47;;;;;;;11.96;46.70;95815.56;5074989;28;20696;-83
2022/03/28 05:10:02;;;;;;;35.17;16.63;;;;;;;13.33;44.47;95899.94;5073965;28;20177;-84
2022/03/28 05:12:28;;;;;;;27.07;14.37;;;;;;;13.86;42.07;95869.84;5074150;28;20158;-84
2022/03/28 05:14:55;;;;;;;26.13;13.40;;;;;;;15.03;40.40;95888.22;5073916;28;20560;-83
2022/03/28 05:17:22;;;;;;;30.98;13.25;;;;;;;16.14;37.83;95900.88;5082511;28;20184;-84
2022/03/28 05:19:49;;;;;;;40.75;13.48;;;;;;;16.30;35.92;95777.22;5074195;28;20182;-84
2022/03/28 05:22:14;;;;;;;26.25;13.90;;;;;;;18.04;34.27;95902.03;5071829;28;20182;-83
2022/03/28 05:24:40;;;;;;;25.80;11.98;;;;;;;18.67;32.36;95843.44;5055155;28;20703;-84
2022/03/28 05:27:05;;;;;;;29.52;12.50;;;;;;;19.45;30.67;95861.44;5054770;28;20267;-84
2022/03/28 05:29:31;;;;;;;28.35;12.07;;;;;;;20.10;29.95;95857.41;5054683;28;20178;-84
2022/03/28 05:31:56;;;;;;;26.98;12.82;;;;;;;20.96;29.18;95898.69;5073144;28;20182;-82
2022/03/28 05:34:22;;;;;;;29.63;13.02;;;;;;;21.52;28.36;95896.66;5073489;28;20652;-81
2022/03/28 05:36:47;;;;;;;30.60;13.40;;;;;;;22.17;26.84;95897.22;5073663;28;20159;-81
2022/03/28 05:39:13;;;;;;;31.30;13.57;;;;;;;22.64;26.24;95866.91;5055236;28;20182;-87
2022/03/28 05:41:39;;;;;;;29.67;12.85;;;;;;;23.15;25.35;95861.75;5073475;28;20181;-82
2022/03/28 05:44:04;;;;;;;24.25;12.18;;;;;;;23.52;24.27;95842.78;5073221;28;20162;-83
2022/03/28 05:46:30;;;;;;;34.13;13.10;;;;;;;24.19;23.76;95866.69;5055317;28;20680;-82
2022/03/28 05:48:56;;;;;;;31.48;15.07;;;;;;;24.46;22.76;95908.66;5072472;28;20197;-82
2022/03/28 05:51:22;;;;;;;42.30;15.65;;;;;;;24.35;23.37;95892.53;5072341;28;20185;-83
2022/03/28 05:53:47;;;;;;;51.35;18.27;;;;;;;24.95;22.55;95912.34;5072423;28;20602;-82
2022/03/28 05:56:13;;;;;;;81.95;24.30;;;;;;;25.32;21.95;95909.22;5072523;28;20265;-82
2022/03/28 05:58:38;;;;;;;132.80;43.78;;;;;;;25.63;22.01;95909.84;5073504;28;20212;-82
2022/03/28 06:01:04;;;;;;;335.73;86.65;;;;;;;25.83;21.33;95861.16;5072869;28;20178;-82
2022/03/28 06:03:29;;;;;;;1999.90;977.63;;;;;;;26.63;20.90;95903.94;5072955;28;20174;-82
2022/03/28 06:05:56;;;;;;;1999.90;999.90;;;;;;;26.48;21.29;95853.53;5072263;28;20545;-82
2022/03/28 06:08:21;;;;;;;1999.90;999.90;;;;;;;26.13;21.14;95861.97;5072136;28;20198;-81
2022/03/28 06:10:47;;;;;;;1999.90;999.90;;;;;;;26.45;20.61;95910.06;5072086;28;20182;-81
2022/03/28 06:13:13;;;;;;;1999.90;999.90;;;;;;;26.96;20.66;95908.44;5072594;28;20174;-81
2022/03/28 06:15:38;;;;;;;1999.90;999.90;;;;;;;27.06;20.10;95871.56;5072396;28;20186;-81
2022/03/28 06:18:05;;;;;;;1999.90;999.90;;;;;;;27.91;19.84;95914.78;5072543;28;20307;-81
2022/03/28 06:20:31;;;;;;;1999.90;999.90;;;;;;;28.12;18.78;95878.94;5072639;28;20246;-79
2022/03/28 06:22:57;;;;;;;1999.90;999.90;;;;;;;28.56;19.06;95903.94;5054601;28;20602;-81
2022/03/28 06:25:22;;;;;;;1734.90;999.90;;;;;;;29.01;18.62;95910.44;5072665;28;20307;-79
2022/03/28 06:27:48;;;;;;;22.08;15.35;;;;;;;28.63;18.80;95882.69;5072861;28;20209;-80
2022/03/28 06:30:17;;;;;;;21.52;11.80;;;;;;;27.45;20.05;95909.16;5071552;28;20186;-79
2022/03/28 06:32:42;;;;;;;18.98;12.88;;;;;;;27.88;19.24;95908.03;5070012;28;20182;-80
2022/03/28 06:35:09;;;;;;;22.33;13.73;;;;;;;28.49;19.63;95904.34;5071793;28;20214;-79
2022/03/28 06:37:35;;;;;;;21.50;13.68;;;;;;;28.95;18.64;95881.81;5071399;28;20258;-81
2022/03/28 06:40:06;;;;;;;21.95;12.35;;;;;;;28.53;18.66;95906.16;5070963;28;20177;-81
2022/03/28 06:42:32;;;;;;;17.73;11.68;;;;;;;27.15;19.94;95875.25;5053585;28;20568;-81
2022/03/28 06:45:01;;;;;;;17.55;12.75;;;;;;;26.24;20.53;95858.09;5071312;28;20267;-83
2022/03/28 06:47:27;;;;;;;25.50;12.13;;;;;;;25.72;20.87;95826.44;5071165;28;20209;-81
2022/03/28 06:49:52;;;;;;;25.80;13.98;;;;;;;25.78;21.44;95861.19;5071468;28;20185;-81
2022/03/28 06:52:18;;;;;;;19.67;14.15;;;;;;;25.23;21.88;95875.81;5071504;28;20177;-81
2022/03/28 06:54:44;;;;;;;26.85;15.82;;;;;;;24.85;22.54;95868.41;5053421;28;20182;-81
2022/03/28 06:57:09;;;;;;;28.98;16.08;;;;;;;23.78;22.99;95848.97;5070912;28;20255;-84
2022/03/28 06:59:35;;;;;;;630.90;537.47;;;;;;;23.34;24.14;95895.13;5071180;28;20180;-83
2022/03/28 07:02:00;;;;;;;1999.90;999.90;;;;;;;22.84;24.77;95906.47;5053525;28;20174;-83
2022/03/28 07:04:26;;;;;;;1999.90;999.90;;;;;;;22.32;24.98;95845.53;5069632;28;20190;-83
2022/03/28 07:06:54;;;;;;;1999.90;999.90;;;;;;;22.55;25.51;95900.69;5071125;28;20265;-83
2022/03/28 07:09:20;;;;;;;1999.90;999.90;;;;;;;22.44;26.00;95902.50;5071475;28;20269;-83
2022/03/28 07:11:45;;;;;;;1999.90;999.90;;;;;;;22.67;26.23;95905.84;5053621;28;20202;-83
2022/03/28 07:14:12;;;;;;;1999.90;999.90;;;;;;;22.49;25.28;95869.50;5071125;28;20203;-84
2022/03/28 07:16:37;;;;;;;1999.90;999.90;;;;;;;21.23;26.20;95786.25;5071095;28;20560;-86
2022/03/28 07:19:03;;;;;;;1999.90;999.90;;;;;;;21.57;28.24;95856.50;5053068;28;20178;-84
2022/03/28 07:21:29;;;;;;;1999.90;999.90;;;;;;;21.73;27.26;95903.81;5068594;28;20551;-84
2022/03/28 07:23:54;;;;;;;1999.90;999.90;;;;;;;21.47;27.55;95905.44;5067520;28;20597;-83
2022/03/28 07:26:21;;;;;;;1999.90;999.90;;;;;;;20.49;27.93;95853.72;5071086;28;20189;-83
2022/03/28 07:28:47;;;;;;;1966.22;473.98;;;;;;;20.09;28.92;95871.81;5070587;28;20203;-84
2022/03/28 07:31:13;;;;;;;1156.95;351.33;;;;;;;20.10;30.02;95905.53;5070998;28;20649;-84
2022/03/28 07:33:39;;;;;;;269.73;71.88;;;;;;;19.94;29.52;95891.94;5071184;28;20170;-85
2022/03/28 07:36:05;;;;;;;121.32;32.67;;;;;;;20.07;29.98;95904.13;5075689;28;20641;-83
2022/03/28 07:38:30;;;;;;;94.07;28.63;;;;;;;19.67;29.99;95821.47;5053473;28;20174;-84
2022/03/28 07:40:56;;;;;;;43.85;16.20;;;;;;;19.86;30.70;95852.25;5052837;28;20571;-83
2022/03/28 07:43:22;;;;;;;16.88;9.43;;;;;;;20.33;31.48;95857.19;5074396;28;20201;-85
2022/03/28 07:45:50;;;;;;;24.17;11.38;;;;;;;20.64;29.99;95837.84;5074334;28;20228;-84
2022/03/28 07:48:16;;;;;;;28.33;11.88;;;;;;;21.33;29.30;95907.72;5057581;28;20194;-82
2022/03/28 07:50:43;;;;;;;19.58;10.90;;;;;;;21.23;29.13;95883.50;5074582;28;20759;-83
2022/03/28 07:53:09;;;;;;;13.57;10.93;;;;;;;21.00;28.47;95875.72;5073538;28;20575;-80
2022/03/28 07:55:34;;;;;;;39.70;13.00;;;;;;;20.57;28.88;95825.72;5074457;28;20235;-84
2022/03/28 07:58:02;;;;;;;28.52;10.57;;;;;;;20.62;30.27;95856.00;5074411;28;20614;-84
2022/03/28 08:00:29;;;;;;;29.80;10.13;;;;;;;21.22;30.28;95900.63;5074345;28;20177;-84
2022/03/28 08:02:55;;;;;;;15.40;10.00;;;;;;;21.08;28.57;95848.50;5056091;28;20250;-82
2022/03/28 08:05:21;;;;;;;17.08;11.15;;;;;;;21.69;30.32;95884.75;5074246;28;20197;-81
2022/03/28 08:07:49;;;;;;;16.00;9.00;;;;;;;21.94;28.10;95886.03;5074192;28;20218;-81
2022/03/28 08:10:14;;;;;;;31.48;11.55;;;;;;;21.57;28.14;95878.75;5074238;28;20208;-81
2022/03/28 08:12:42;;;;;;;48.28;12.82;;;;;;;21.22;29.34;95863.13;5074257;28;20585;-83
2022/03/28 08:15:08;;;;;;;18.63;10.95;;;;;;;21.14;29.37;95835.97;5074897;28;20614;-81
2022/03/28 08:17:38;;;;;;;17.38;9.95;;;;;;;21.55;29.45;95875.50;5074905;28;20178;-81
2022/03/28 08:20:06;;;;;;;17.27;11.05;;;;;;;21.74;29.84;95873.25;5075184;28;20617;-81
2022/03/28 08:22:33;;;;;;;15.55;10.40;;;;;;;21.91;28.79;95867.75;5074788;28;20166;-81
2022/03/28 08:24:58;;;;;;;18.00;9.55;;;;;;;21.74;28.85;95867.91;5074587;28;20190;-81
2022/03/28 08:27:24;;;;;;;17.77;9.93;;;;;;;21.55;30.56;95837.16;5073829;28;20226;-81
2022/03/28 08:29:49;;;;;;;15.18;9.40;;;;;;;21.90;30.35;95858.91;5073652;28;20206;-80
2022/03/28 08:32:15;;;;;;;22.98;10.45;;;;;;;21.92;29.17;95848.72;5073367;28;20163;-82
2022/03/28 08:34:42;;;;;;;28.38;10.77;;;;;;;21.85;29.16;95818.66;5073691;28;20291;-82
2022/03/28 08:37:09;;;;;;;26.55;12.10;;;;;;;22.02;28.96;95848.03;5073874;28;20166;-83
2022/03/28 08:39:35;;;;;;;17.55;10.95;;;;;;;22.17;28.39;95846.25;5074167;28;20166;-80
2022/03/28 08:42:01;;;;;;;25.92;12.80;;;;;;;21.93;29.07;95779.81;5074167;28;20235;-83
2022/03/28 08:44:27;;;;;;;23.33;11.85;;;;;;;22.42;29.52;95836.72;5074232;28;20181;-83
2022/03/28 08:46:55;;;;;;;21.95;10.07;;;;;;;22.34;29.31;95834.53;5056095;28;20167;-82
2022/03/28 08:49:20;;;;;;;21.85;11.73;;;;;;;22.24;30.19;95787.00;5056429;28;20162;-83
2022/03/28 08:51:46;;;;;;;19.13;9.60;;;;;;;21.82;27.58;95787.00;5061180;28;20557;-83
2022/03/28 08:54:14;;;;;;;18.65;12.63;;;;;;;21.04;30.95;95738.41;5074386;28;20694;-85
2022/03/28 08:56:39;;;;;;;28.48;14.18;;;;;;;21.24;29.16;95810.13;5073878;28;20189;-83
2022/03/28 08:59:05;;;;;;;31.77;14.85;;;;;;;19.96;31.15;95806.97;5073472;28;20198;-84
2022/03/28 09:01:32;;;;;;;23.60;12.77;;;;;;;19.28;32.18;95809.06;5073943;28;20162;-82
2022/03/28 09:04:06;;;;;;;23.75;11.60;;;;;;;18.75;33.17;95811.06;5059568;28;20171;-83
2022/03/28 09:06:36;;;;;;;19.50;11.57;;;;;;;18.26;35.71;95755.63;5055411;28;20230;-85
2022/03/28 09:09:21;;;;;;;24.35;10.57;;;;;;;18.79;34.03;95800.72;5072839;28;20186;-85
2022/03/28 09:11:52;;;;;;;20.02;10.82;;;;;;;18.95;33.09;95802.59;5055520;28;20243;-85
2022/03/28 09:14:40;;;;;;;23.13;11.60;;;;;;;18.71;34.33;95793.09;5073287;28;20605;-85
2022/03/28 09:17:11;;;;;;;22.13;10.60;;;;;;;18.44;33.37;95729.59;5074194;28;20553;-81
2022/03/28 09:19:46;;;;;;;16.95;10.73;;;;;;;18.64;33.77;95787.91;5073799;28;20193;-85
2022/03/28 09:22:17;;;;;;;24.15;9.95;;;;;;;18.69;33.64;95787.97;5072784;28;20178;-82
2022/03/28 09:24:44;;;;;;;21.00;10.35;;;;;;;18.74;33.82;95784.63;5055039;28;20166;-82
2022/03/28 09:27:18;;;;;;;20.77;10.00;;;;;;;18.74;33.53;95772.09;5072963;28;20187;-82
2022/03/28 09:30:33;;;;;;;19.02;10.57;;;;;;;18.55;34.97;95751.16;5071006;28;20171;-86
2022/03/28 09:32:58;;;;;;;16.55;9.95;;;;;;;18.41;33.34;95722.09;4992232;28;20185;-83
2022/03/28 09:35:26;;;;;;;22.27;10.38;;;;;;;18.46;33.62;95769.38;5010721;28;20251;-83
2022/03/28 09:38:08;;;;;;;20.02;11.15;;;;;;;18.38;35.41;95762.56;5038117;28;20194;-85
2022/03/28 09:40:45;;;;;;;21.55;10.60;;;;;;;18.63;33.87;95756.94;5072181;28;20181;-80
2022/03/28 09:43:20;;;;;;;19.58;10.43;;;;;;;18.85;35.14;95751.75;5072770;28;20190;-79
2022/03/28 09:45:50;;;;;;;22.33;10.80;;;;;;;18.99;34.51;95744.22;5068355;28;20176;-80
2022/03/28 09:48:16;;;;;;;22.02;10.73;;;;;;;19.03;33.68;95705.31;5072344;28;20569;-82
2022/03/28 09:50:46;;;;;;;26.95;10.98;;;;;;;19.40;33.42;95729.66;5072558;28;20633;-81
2022/03/28 09:53:35;;;;;;;24.33;10.82;;;;;;;19.56;33.10;95728.88;5073036;28;20232;-82
2022/03/28 09:56:03;;;;;;;19.98;10.50;;;;;;;19.69;32.25;95725.84;5073714;28;20165;-84
2022/03/28 09:58:42;;;;;;;16.65;10.38;;;;;;;19.74;32.55;95728.59;5073039;28;20151;-80
2022/03/28 10:01:35;;;;;;;20.95;12.38;;;;;;;19.38;33.26;95716.53;5072175;28;20181;-83
2022/03/28 10:04:07;;;;;;;16.40;9.73;;;;;;;19.40;33.08;95716.31;5070992;28;20170;-82
2022/03/28 10:06:35;;;;;;;26.23;10.98;;;;;;;19.57;32.27;95712.59;5074468;28;20174;-81
2022/03/28 10:09:01;;;;;;;19.75;10.95;;;;;;;19.26;32.90;95674.97;5074037;28;21014;-82
2022/03/28 10:11:28;;;;;;;20.63;10.45;;;;;;;19.04;32.23;95665.03;5054193;28;20261;-82
2022/03/28 10:13:54;;;;;;;16.30;10.00;;;;;;;18.86;32.91;95673.28;5070451;28;20166;-81
2022/03/28 10:16:20;;;;;;;20.85;9.73;;;;;;;18.70;32.69;95628.72;5069695;28;20521;-82
2022/03/28 10:18:46;;;;;;;18.00;9.88;;;;;;;19.05;32.41;95681.88;5072063;28;20208;-81
2022/03/28 10:21:22;;;;;;;18.25;9.60;;;;;;;19.07;33.49;95674.44;5073647;28;20178;-82
2022/03/28 10:23:54;;;;;;;18.88;10.20;;;;;;;19.16;32.92;95667.63;5068276;28;20916;-82
2022/03/28 10:26:24;;;;;;;18.85;9.65;;;;;;;19.14;33.26;95643.03;5066888;28;20181;-82
2022/03/28 10:29:11;;;;;;;29.88;10.70;;;;;;;19.38;33.28;95656.97;5065896;28;20198;-82
2022/03/28 10:32:00;;;;;;;19.15;10.23;;;;;;;19.53;32.64;95649.22;5063915;28;20261;-82
2022/03/28 10:34:48;;;;;;;19.35;9.98;;;;;;;19.37;34.41;95629.47;5066078;28;20601;-82
2022/03/28 10:37:26;;;;;;;22.63;11.65;;;;;;;19.40;32.10;95644.19;5066104;28;20181;-82
2022/03/28 10:40:29;;;;;;;22.45;8.82;;;;;;;19.15;33.11;95631.31;5067272;28;20171;-83
2022/03/28 10:43:03;;;;;;;23.40;10.27;;;;;;;19.37;32.52;95644.72;5069324;28;20691;-82
2022/03/28 10:45:41;;;;;;;22.73;10.10;;;;;;;19.12;31.96;95618.44;5070829;28;20166;-82
2022/03/28 10:48:08;;;;;;;18.98;9.68;;;;;;;19.01;32.58;95625.50;5070298;28;20194;-82
2022/03/28 10:50:50;;;;;;;19.95;10.73;;;;;;;18.68;33.33;95582.84;5070498;28;20570;-82
2022/03/28 10:53:26;;;;;;;25.70;10.43;;;;;;;18.84;34.04;95622.84;5068831;28;20174;-82
2022/03/28 10:55:59;;;;;;;20.02;10.52;;;;;;;18.91;33.37;95620.00;5068567;28;20174;-82
2022/03/28 10:58:51;;;;;;;18.10;9.85;;;;;;;18.88;33.99;95619.69;5069385;28;20175;-82
2022/03/28 11:01:22;;;;;;;29.80;10.43;;;;;;;18.77;33.51;95608.84;5068184;28;20186;-82
2022/03/28 11:04:15;;;;;;;20.35;10.40;;;;;;;18.50;35.01;95567.88;5068775;28;20181;-82
2022/03/28 11:06:53;;;;;;;22.67;10.05;;;;;;;18.85;33.90;95605.75;5050982;28;20555;-82
2022/03/28 11:09:49;;;;;;;18.65;9.80;;;;;;;18.96;32.62;95603.25;5068360;28;20377;-82
2022/03/28 11:12:39;;;;;;;19.80;9.75;;;;;;;18.96;33.13;95588.06;5068331;28;20287;-82
2022/03/28 11:15:11;;;;;;;20.38;11.30;;;;;;;19.10;32.42;95600.03;5067709;28;20174;-82
2022/03/28 11:17:37;;;;;;;24.25;11.30;;;;;;;19.15;32.58;95584.06;5067740;28;20549;-81
2022/03/28 11:20:15;;;;;;;21.40;11.13;;;;;;;19.13;32.43;95580.81;5068632;28;20187;-81
2022/03/28 11:22:49;;;;;;;27.15;11.25;;;;;;;19.25;32.95;95591.41;5071410;28;20174;-82